createdAt,value
2019-04-03T00:02:16.272Z,12.58
2019-04-03T00:05:19.780Z,13.08
2019-04-03T00:08:23.631Z,12.28
2019-04-03T00:11:27.197Z,12.75
2019-04-03T00:14:30.597Z,12.60
2019-04-03T00:17:34.101Z,12.55
2019-04-03T00:20:37.525Z,12.20
2019-04-03T00:23:40.899Z,12.90
2019-04-03T00:26:44.300Z,12.53
2019-04-03T00:29:47.904Z,11.85
2019-04-03T00:32:53.072Z,12.15
2019-04-03T00:35:56.639Z,12.33
2019-04-03T00:39:00.088Z,12.98
2019-04-03T00:42:03.651Z,12.53
2019-04-03T00:45:07.272Z,11.48
2019-04-03T00:48:10.941Z,13.28
2019-04-03T00:51:14.607Z,13.20
2019-04-03T00:54:18.113Z,12.88
2019-04-03T00:57:21.635Z,13.10
2019-04-03T01:00:26.437Z,12.53
2019-04-03T01:03:30.341Z,12.82
2019-04-03T01:06:33.896Z,12.78
2019-04-03T01:09:37.568Z,12.18
2019-04-03T01:12:41.030Z,13.32
2019-04-03T01:15:44.584Z,13.00
2019-04-03T01:18:48.031Z,13.25
2019-04-03T01:21:51.440Z,12.98
2019-04-03T01:24:55.087Z,12.93
2019-04-03T01:27:58.650Z,13.65
2019-04-03T01:31:02.217Z,12.80
2019-04-03T01:34:05.638Z,14.07
2019-04-03T01:37:09.062Z,13.75
2019-04-03T01:40:12.587Z,14.15
2019-04-03T01:43:15.947Z,13.68
2019-04-03T01:46:19.508Z,14.40
2019-04-03T01:49:23.032Z,14.23
2019-04-03T01:52:26.351Z,13.90
2019-04-03T01:55:30.006Z,14.80
2019-04-03T01:58:35.971Z,15.70
2019-04-03T02:01:39.148Z,15.08
2019-04-03T02:04:43.039Z,14.75
2019-04-03T02:07:47.452Z,15.18
2019-04-03T02:10:51.003Z,15.70
2019-04-03T02:13:54.587Z,15.58
2019-04-03T02:16:58.032Z,15.50
2019-04-03T02:20:01.612Z,14.78
2019-04-03T02:23:04.988Z,15.18
2019-04-03T02:26:08.418Z,14.85
2019-04-03T02:29:11.980Z,15.23
2019-04-03T02:32:15.278Z,16.10
2019-04-03T02:35:18.716Z,15.43
2019-04-03T02:38:23.806Z,15.20
2019-04-03T02:41:27.224Z,15.58
2019-04-03T02:44:30.602Z,15.48
2019-04-03T02:47:34.783Z,16.15
2019-04-03T02:50:38.475Z,16.32
2019-04-03T02:53:42.193Z,15.45
2019-04-03T02:56:46.160Z,15.63
2019-04-03T02:59:52.090Z,16.95
2019-04-03T03:02:55.323Z,15.43
2019-04-03T03:06:00.582Z,16.12
2019-04-03T03:09:05.323Z,15.53
2019-04-03T03:12:08.976Z,16.07
2019-04-03T03:15:12.795Z,17.07
2019-04-03T03:18:16.209Z,16.10
2019-04-03T03:21:20.376Z,17.00
2019-04-03T03:24:24.421Z,15.75
2019-04-03T03:27:29.486Z,16.57
2019-04-03T03:30:44.348Z,16.20
2019-04-03T03:33:40.450Z,16.90
2019-04-03T03:36:43.660Z,16.23
2019-04-03T03:39:47.277Z,16.65
2019-04-03T03:42:50.721Z,17.10
2019-04-03T03:45:54.437Z,16.12
2019-04-03T03:48:58.143Z,17.17
2019-04-03T03:52:04.486Z,16.77
2019-04-03T03:55:08.363Z,16.60
2019-04-03T03:58:13.409Z,15.95
2019-04-03T04:01:17.483Z,16.60
2019-04-03T04:04:20.750Z,16.52
2019-04-03T04:07:23.971Z,17.12
2019-04-03T04:10:28.737Z,16.45
2019-04-03T04:13:32.483Z,16.42
2019-04-03T04:16:37.335Z,16.95
2019-04-03T04:19:41.918Z,16.65
2019-04-03T04:22:48.881Z,16.07
2019-04-03T04:25:51.256Z,16.73
2019-04-03T04:28:54.604Z,18.85
2019-04-03T04:31:57.876Z,17.20
2019-04-03T04:35:01.264Z,17.52
2019-04-03T04:38:04.715Z,17.67
2019-04-03T04:41:08.332Z,19.35
2019-04-03T04:44:14.341Z,22.67
2019-04-03T04:47:17.267Z,21.15
2019-04-03T04:50:25.279Z,22.13
2019-04-03T04:53:30.222Z,21.20
2019-04-03T04:56:33.816Z,19.17
2019-04-03T04:59:37.303Z,19.17
2019-04-03T05:02:40.415Z,17.85
2019-04-03T05:05:43.691Z,18.50
2019-04-03T05:08:47.176Z,17.60
2019-04-03T05:11:51.843Z,18.82
2019-04-03T05:14:55.212Z,20.02
2019-04-03T05:17:58.495Z,19.90
2019-04-03T05:21:01.995Z,19.75
2019-04-03T05:24:12.829Z,18.50
2019-04-03T05:27:10.688Z,18.07
2019-04-03T05:30:29.507Z,18.55
2019-04-03T05:33:32.907Z,18.15
2019-04-03T05:36:36.543Z,17.15
2019-04-03T05:39:39.719Z,16.87
2019-04-03T05:42:43.239Z,16.93
2019-04-03T05:45:46.515Z,17.77
2019-04-03T05:48:50.051Z,16.70
2019-04-03T05:51:53.458Z,15.93
2019-04-03T05:54:57.397Z,17.32
2019-04-03T05:58:00.860Z,15.95
2019-04-03T06:01:06.609Z,15.60
2019-04-03T06:04:10.537Z,16.48
2019-04-03T06:07:17.449Z,17.02
2019-04-03T06:10:19.948Z,16.52
2019-04-03T06:13:24.379Z,16.30
2019-04-03T06:16:27.987Z,18.00
2019-04-03T06:19:34.063Z,18.45
2019-04-03T06:22:36.702Z,18.12
2019-04-03T06:25:40.119Z,16.25
2019-04-03T06:28:46.368Z,15.72
2019-04-03T06:31:48.938Z,16.37
2019-04-03T06:34:52.484Z,17.48
2019-04-03T06:37:55.894Z,16.70
2019-04-03T06:40:59.389Z,16.40
2019-04-03T06:44:02.997Z,16.32
2019-04-03T06:47:06.519Z,16.52
2019-04-03T06:50:11.943Z,16.05
2019-04-03T06:53:15.530Z,16.42
2019-04-03T06:56:18.940Z,16.85
2019-04-03T06:59:22.131Z,17.27
2019-04-03T07:02:27.739Z,16.42
2019-04-03T07:05:30.470Z,16.75
2019-04-03T07:08:36.146Z,18.00
2019-04-03T07:11:39.107Z,16.60
2019-04-03T07:14:42.409Z,16.82
2019-04-03T07:17:46.740Z,17.37
2019-04-03T07:20:52.225Z,16.82
2019-04-03T07:24:00.388Z,17.25
2019-04-03T07:27:02.801Z,16.67
2019-04-03T07:30:07.205Z,16.55
2019-04-03T07:33:10.675Z,17.80
2019-04-03T07:36:15.119Z,16.80
2019-04-03T07:39:19.807Z,16.30
2019-04-03T07:42:24.581Z,17.52
2019-04-03T07:45:28.419Z,18.65
2019-04-03T07:48:33.307Z,16.87
2019-04-03T07:51:37.137Z,17.65
2019-04-03T07:54:40.469Z,15.83
2019-04-03T07:57:43.876Z,16.67
2019-04-03T08:00:47.440Z,17.27
2019-04-03T08:03:52.095Z,16.55
2019-04-03T08:06:56.032Z,16.97
2019-04-03T08:09:59.434Z,17.45
2019-04-03T08:13:02.506Z,18.23
2019-04-03T08:16:06.085Z,17.37
2019-04-03T08:19:10.690Z,17.90
2019-04-03T08:22:14.153Z,16.00
2019-04-03T08:25:17.604Z,16.48
2019-04-03T08:28:21.179Z,17.40
2019-04-03T08:31:24.749Z,17.62
2019-04-03T08:34:30.766Z,16.77
2019-04-03T08:37:33.504Z,16.80
2019-04-03T08:40:36.478Z,17.15
2019-04-03T08:43:39.561Z,17.52
2019-04-03T08:46:43.891Z,16.97
2019-04-03T08:49:47.044Z,17.07
2019-04-03T08:52:50.041Z,17.05
2019-04-03T08:55:55.261Z,17.32
2019-04-03T08:58:58.549Z,16.97
2019-04-03T09:02:03.021Z,15.68
2019-04-03T09:05:07.085Z,14.93
2019-04-03T09:08:10.672Z,16.73
2019-04-03T09:11:14.247Z,14.55
2019-04-03T09:14:19.471Z,15.00
2019-04-03T09:17:22.882Z,14.43
2019-04-03T09:20:26.718Z,14.33
2019-04-03T09:23:30.467Z,14.07
2019-04-03T09:26:37.125Z,13.90
2019-04-03T09:29:39.139Z,14.13
2019-04-03T09:32:42.476Z,13.98
2019-04-03T09:35:45.953Z,13.78
2019-04-03T09:38:49.450Z,13.75
2019-04-03T09:41:52.948Z,13.78
2019-04-03T09:44:56.764Z,14.30
2019-04-03T09:48:00.318Z,13.25
2019-04-03T09:51:03.867Z,13.10
2019-04-03T09:54:07.494Z,12.70
2019-04-03T09:57:11.011Z,13.32
2019-04-03T10:00:14.786Z,13.55
2019-04-03T10:03:18.133Z,12.53
2019-04-03T10:06:21.355Z,12.53
2019-04-03T10:09:25.177Z,12.90
2019-04-03T10:12:31.766Z,13.88
2019-04-03T10:15:34.552Z,12.70
2019-04-03T10:18:39.394Z,13.08
2019-04-03T10:21:43.129Z,12.68
2019-04-03T10:24:47.591Z,13.40
2019-04-03T10:27:51.119Z,13.15
2019-04-03T10:30:54.645Z,15.30
2019-04-03T10:33:58.022Z,13.80
2019-04-03T10:37:01.645Z,14.95
2019-04-03T10:40:06.914Z,15.18
2019-04-03T10:43:10.537Z,15.18
2019-04-03T10:46:14.260Z,16.10
2019-04-03T10:49:17.793Z,15.80
2019-04-03T10:52:21.179Z,16.23
2019-04-03T10:55:27.293Z,15.95
2019-04-03T10:58:30.236Z,17.27
2019-04-03T11:01:33.773Z,17.75
2019-04-03T11:04:37.323Z,18.05
2019-04-03T11:07:41.158Z,18.57
2019-04-03T11:10:44.765Z,17.30
2019-04-03T11:13:48.533Z,17.90
2019-04-03T11:16:52.583Z,17.98
2019-04-03T11:19:56.088Z,16.62
2019-04-03T11:23:06.323Z,15.32
2019-04-03T11:26:04.985Z,13.93
2019-04-03T11:29:10.007Z,13.32
2019-04-03T11:32:13.984Z,14.75
2019-04-03T11:35:20.671Z,13.15
2019-04-03T11:38:27.889Z,13.68
2019-04-03T11:41:28.041Z,14.75
2019-04-03T11:44:31.337Z,13.85
2019-04-03T11:47:34.710Z,14.87
2019-04-03T11:50:39.964Z,14.45
2019-04-03T11:53:45.353Z,14.80
2019-04-03T11:56:47.994Z,14.00
2019-04-03T11:59:51.210Z,15.45
2019-04-03T12:02:54.409Z,13.93
2019-04-03T12:05:57.417Z,14.10
2019-04-03T12:09:01.223Z,14.87
2019-04-03T12:12:09.443Z,14.35
2019-04-03T12:15:15.693Z,14.05
2019-04-03T12:18:17.847Z,14.30
2019-04-03T12:21:21.640Z,14.65
2019-04-03T12:24:33.197Z,13.75
2019-04-03T12:27:36.816Z,14.43
2019-04-03T12:30:40.386Z,15.20
2019-04-03T12:33:54.283Z,14.15
2019-04-03T12:36:50.213Z,14.90
2019-04-03T12:39:54.108Z,14.87
2019-04-03T12:42:58.535Z,14.85
2019-04-03T12:46:03.112Z,14.90
2019-04-03T12:49:08.010Z,13.95
2019-04-03T12:52:11.370Z,14.83
2019-04-03T12:55:15.179Z,13.38
2019-04-03T12:58:18.871Z,13.03
2019-04-03T13:01:22.086Z,12.75
2019-04-03T13:04:26.524Z,12.10
2019-04-03T13:07:30.812Z,12.05
2019-04-03T13:10:40.638Z,12.63
2019-04-03T13:13:39.363Z,12.47
2019-04-03T13:16:43.542Z,12.30
2019-04-03T13:19:48.003Z,13.35
2019-04-03T13:22:51.837Z,12.88
2019-04-03T13:25:55.311Z,13.22
2019-04-03T13:28:59.051Z,11.63
2019-04-03T13:32:02.419Z,12.75
2019-04-03T13:35:06.448Z,13.10
2019-04-03T13:38:09.872Z,13.80
2019-04-03T13:41:13.476Z,13.28
2019-04-03T13:44:16.942Z,13.18
2019-04-03T13:47:20.528Z,13.18
2019-04-03T13:50:24.115Z,11.83
2019-04-03T13:53:27.736Z,12.43
2019-04-03T13:56:31.433Z,13.05
2019-04-03T13:59:34.987Z,12.55
2019-04-03T14:02:38.674Z,12.33
2019-04-03T14:05:43.433Z,13.10
2019-04-03T14:08:47.623Z,12.40
2019-04-03T14:11:51.275Z,12.98
2019-04-03T14:14:54.967Z,13.15
2019-04-03T14:17:59.254Z,13.38
2019-04-03T14:21:02.931Z,12.53
2019-04-03T14:24:08.267Z,12.03
2019-04-03T14:27:19.391Z,12.65
2019-04-03T14:30:18.068Z,11.78
2019-04-03T14:33:23.451Z,12.13
2019-04-03T14:36:27.860Z,12.93
2019-04-03T14:39:31.874Z,12.90
2019-04-03T14:42:35.558Z,12.82
2019-04-03T14:45:40.235Z,12.20
2019-04-03T14:48:43.726Z,12.33
2019-04-03T14:51:47.645Z,12.65
2019-04-03T14:54:52.081Z,11.43
2019-04-03T14:57:56.353Z,11.48
2019-04-03T15:01:01.144Z,11.65
2019-04-03T15:04:05.319Z,11.68
2019-04-03T15:07:12.023Z,11.25
2019-04-03T15:10:18.614Z,11.70
2019-04-03T15:13:24.525Z,12.55
2019-04-03T15:16:31.370Z,12.03
2019-04-03T15:19:35.832Z,12.05
2019-04-03T15:27:02.877Z,11.83
2019-04-03T15:30:09.912Z,11.88
2019-04-03T15:33:12.127Z,11.60
2019-04-03T15:36:15.217Z,11.35
2019-04-03T15:39:19.528Z,10.88
2019-04-03T15:42:24.365Z,10.82
2019-04-03T15:45:29.073Z,11.10
2019-04-03T15:48:48.999Z,11.83
2019-04-03T15:51:53.547Z,11.35
2019-04-03T15:54:57.437Z,11.53
2019-04-03T15:58:02.334Z,10.48
2019-04-03T16:01:07.886Z,10.63
2019-04-03T16:04:12.848Z,11.63
2019-04-03T16:07:17.460Z,10.95
2019-04-03T16:10:23.239Z,11.50
2019-04-03T16:13:28.560Z,11.50
2019-04-03T16:16:32.784Z,10.75
2019-04-03T16:19:37.443Z,9.85
2019-04-03T16:22:41.812Z,10.65
2019-04-03T16:25:55.561Z,10.40
2019-04-03T16:29:00.144Z,11.05
2019-04-03T16:32:05.574Z,10.15
2019-04-03T16:35:12.677Z,10.63
2019-04-03T16:38:18.761Z,10.75
2019-04-03T16:41:24.927Z,10.72
2019-04-03T16:44:29.848Z,10.18
2019-04-03T16:47:34.579Z,11.15
2019-04-03T16:50:38.541Z,10.70
2019-04-03T16:53:42.510Z,10.85
2019-04-03T16:56:48.848Z,10.75
2019-04-03T16:59:54.065Z,10.85
2019-04-03T17:02:58.298Z,10.80
2019-04-03T17:06:02.049Z,10.28
2019-04-03T17:09:07.759Z,10.63
2019-04-03T17:12:11.484Z,11.83
2019-04-03T17:15:16.628Z,11.90
2019-04-03T17:18:20.342Z,12.33
2019-04-03T17:21:23.855Z,13.70
2019-04-03T17:24:27.403Z,12.70
2019-04-03T17:27:30.950Z,14.03
2019-04-03T17:30:35.279Z,13.55
2019-04-03T17:33:38.798Z,13.40
2019-04-03T17:36:42.402Z,14.60
2019-04-03T17:39:45.779Z,14.90
2019-04-03T17:42:49.552Z,15.25
2019-04-03T17:45:53.797Z,16.12
2019-04-03T17:48:58.125Z,15.32
2019-04-03T17:52:04.690Z,14.93
2019-04-03T17:55:10.007Z,14.40
2019-04-03T17:58:16.447Z,15.32
2019-04-03T18:01:18.993Z,17.32
2019-04-03T18:04:22.494Z,16.48
2019-04-03T18:07:28.217Z,15.85
2019-04-03T18:10:31.401Z,16.20
2019-04-03T18:13:34.698Z,15.98
2019-04-03T18:16:38.572Z,14.90
2019-04-03T18:19:42.615Z,14.83
2019-04-03T18:23:10.481Z,14.65
2019-04-03T18:26:13.344Z,14.50
2019-04-03T18:29:17.595Z,14.83
2019-04-03T18:32:21.558Z,14.47
2019-04-03T18:35:26.148Z,14.85
2019-04-03T18:38:30.859Z,15.70
2019-04-03T18:41:35.105Z,15.00
2019-04-03T18:44:39.320Z,16.67
2019-04-03T18:47:45.913Z,15.80
2019-04-03T18:50:50.974Z,15.75
2019-04-03T18:53:54.334Z,15.23
2019-04-03T18:56:57.938Z,13.88
2019-04-03T19:00:01.789Z,14.30
2019-04-03T19:03:06.486Z,15.63
2019-04-03T19:06:13.431Z,14.45
2019-04-03T19:09:16.550Z,16.57
2019-04-03T19:12:20.034Z,16.32
2019-04-03T19:15:23.981Z,14.20
2019-04-03T19:18:28.027Z,15.75
2019-04-03T19:21:31.621Z,15.48
2019-04-03T19:24:34.962Z,16.10
2019-04-03T19:27:38.648Z,15.75
2019-04-03T19:30:43.005Z,15.23
2019-04-03T19:33:47.237Z,14.78
2019-04-03T19:36:52.137Z,15.80
2019-04-03T19:39:55.794Z,15.53
2019-04-03T19:42:59.613Z,15.25
2019-04-03T19:46:03.253Z,15.85
2019-04-03T19:49:07.317Z,15.00
2019-04-03T19:52:11.055Z,15.63
2019-04-03T19:55:15.288Z,15.13
2019-04-03T19:58:19.389Z,15.03
2019-04-03T20:01:24.056Z,15.18
2019-04-03T20:04:40.216Z,14.95
2019-04-03T20:07:43.682Z,15.15
2019-04-03T20:10:48.991Z,13.80
2019-04-03T20:13:51.518Z,15.20
2019-04-03T20:16:58.306Z,14.98
2019-04-03T20:19:59.929Z,13.90
2019-04-03T20:23:04.539Z,14.95
2019-04-03T20:26:08.043Z,14.43
2019-04-03T20:29:11.347Z,15.03
2019-04-03T20:32:15.651Z,14.68
2019-04-03T20:35:18.898Z,14.33
2019-04-03T20:38:22.119Z,14.25
2019-04-03T20:41:25.213Z,14.23
2019-04-03T20:44:28.447Z,14.07
2019-04-03T20:47:31.537Z,13.20
2019-04-03T20:50:40.850Z,14.10
2019-04-03T20:53:43.975Z,14.30
2019-04-03T20:56:57.167Z,14.20
2019-04-03T21:00:01.807Z,12.93
2019-04-03T21:02:57.306Z,14.38
2019-04-03T21:06:00.502Z,14.87
2019-04-03T21:09:06.275Z,14.47
2019-04-03T21:12:11.499Z,14.10
2019-04-03T21:15:14.829Z,14.63
2019-04-03T21:18:18.967Z,13.13
2019-04-03T21:21:25.402Z,14.50
2019-04-03T21:24:28.010Z,15.08
2019-04-03T21:27:31.270Z,14.60
2019-04-03T21:30:34.362Z,13.80
2019-04-03T21:33:37.547Z,14.03
2019-04-03T21:36:40.854Z,14.25
2019-04-03T21:39:44.486Z,14.53
2019-04-03T21:42:47.655Z,14.60
2019-04-03T21:45:50.945Z,14.78
2019-04-03T21:48:54.154Z,14.87
2019-04-03T21:51:57.346Z,14.20
2019-04-03T21:55:00.467Z,14.65
2019-04-03T21:58:04.753Z,15.32
2019-04-03T22:01:18.274Z,14.13
2019-04-03T22:04:22.858Z,14.50
2019-04-03T22:07:28.216Z,14.83
2019-04-03T22:10:33.127Z,13.65
2019-04-03T22:13:38.223Z,14.23
2019-04-03T22:16:41.946Z,14.55
2019-04-03T22:19:45.501Z,14.40
2019-04-03T22:22:48.643Z,14.45
2019-04-03T22:25:51.734Z,14.75
2019-04-03T22:28:54.830Z,13.95
2019-04-03T22:31:58.021Z,13.55
2019-04-03T22:35:20.299Z,13.25
2019-04-03T22:38:23.561Z,13.60
2019-04-03T22:41:26.742Z,14.58
2019-04-03T22:44:30.154Z,14.05
2019-04-03T22:47:33.743Z,14.07
2019-04-03T22:50:37.062Z,14.25
2019-04-03T22:53:41.695Z,13.13
2019-04-03T22:56:45.926Z,14.35
2019-04-03T22:59:50.432Z,14.28
2019-04-03T23:02:53.672Z,13.55
2019-04-03T23:05:56.718Z,15.63
2019-04-03T23:08:59.863Z,14.65
2019-04-03T23:12:03.656Z,13.78
2019-04-03T23:15:09.448Z,15.32
2019-04-03T23:18:13.974Z,14.40
2019-04-03T23:21:17.436Z,14.18
2019-04-03T23:24:20.802Z,14.90
2019-04-03T23:27:24.251Z,14.35
2019-04-03T23:30:27.597Z,13.55
2019-04-03T23:33:31.242Z,14.98
2019-04-03T23:36:34.653Z,14.63
2019-04-03T23:39:38.111Z,14.13
2019-04-03T23:42:41.653Z,15.13
2019-04-03T23:45:45.124Z,14.53
2019-04-03T23:48:48.959Z,15.10
2019-04-03T23:51:52.983Z,15.08
2019-04-03T23:54:56.338Z,14.30
2019-04-03T23:57:59.780Z,15.58
